createdAt,value
2019-01-17T00:02:30.247Z,99248.00
2019-01-17T00:05:04.094Z,99259.00
2019-01-17T00:07:53.420Z,99256.00
2019-01-17T00:10:24.548Z,99238.00
2019-01-17T00:13:11.991Z,99244.00
2019-01-17T00:15:45.827Z,99238.00
2019-01-17T00:18:31.917Z,99239.00
2019-01-17T00:21:03.051Z,99227.00
2019-01-17T00:23:37.141Z,99213.00
2019-01-17T00:26:24.733Z,99211.00
2019-01-17T00:28:58.767Z,99206.00
2019-01-17T00:31:44.894Z,99207.00
2019-01-17T00:34:16.032Z,99206.00
2019-01-17T00:36:56.126Z,99208.00
2019-01-17T00:39:27.246Z,99203.00
2019-01-17T00:45:15.592Z,99192.00
2019-01-17T00:48:03.147Z,99180.00
2019-01-17T00:50:46.142Z,99182.00
2019-01-17T00:53:17.229Z,99177.00
2019-01-17T00:56:04.795Z,99168.00
2019-01-17T00:58:38.473Z,99191.00
2019-01-17T01:01:18.868Z,99192.00
2019-01-17T01:04:07.941Z,99178.00
2019-01-17T01:06:41.857Z,99181.00
2019-01-17T01:09:15.742Z,99179.00
2019-01-17T01:11:46.817Z,99172.00
2019-01-17T01:14:33.318Z,99175.00
2019-01-17T01:17:04.473Z,99179.00
2019-01-17T01:19:38.385Z,99167.00
2019-01-17T01:22:09.605Z,99164.00
2019-01-17T01:24:49.514Z,99164.00
2019-01-17T01:27:32.560Z,99165.00
2019-01-17T01:30:06.423Z,99158.00
2019-01-17T01:32:42.992Z,99164.00
2019-01-17T01:35:16.770Z,99147.00
2019-01-17T01:37:47.855Z,99156.00
2019-01-17T01:40:35.047Z,99147.00
2019-01-17T01:43:06.342Z,99135.00
2019-01-17T01:45:52.457Z,99136.00
2019-01-17T01:48:23.577Z,99126.00
2019-01-17T01:50:54.659Z,99127.00
2019-01-17T01:53:24.218Z,99131.00
2019-01-17T01:55:53.725Z,99127.00
2019-01-17T01:58:23.162Z,99121.00
2019-01-17T02:00:52.629Z,99126.00
2019-01-17T02:03:22.074Z,99124.00
2019-01-17T02:05:51.548Z,99127.00
2019-01-17T02:08:20.994Z,99131.00
2019-01-17T02:10:50.552Z,99126.00
2019-01-17T02:13:19.990Z,99124.00
2019-01-17T02:15:49.598Z,99112.00
2019-01-17T02:18:19.075Z,99118.00
2019-01-17T02:20:48.520Z,99113.00
2019-01-17T02:23:17.971Z,99119.00
2019-01-17T02:25:47.470Z,99112.00
2019-01-17T02:28:16.910Z,99111.00
2019-01-17T02:30:46.357Z,99098.00
2019-01-17T02:33:15.817Z,99105.00
2019-01-17T02:35:45.291Z,99096.00
2019-01-17T02:38:14.752Z,99079.00
2019-01-17T02:40:44.198Z,99087.00
2019-01-17T02:43:13.673Z,99097.00
2019-01-17T02:45:43.151Z,99093.00
2019-01-17T02:48:12.623Z,99081.00
2019-01-17T02:50:42.088Z,99092.00
2019-01-17T02:53:11.530Z,99075.00
2019-01-17T02:55:41.014Z,99076.00
2019-01-17T02:58:10.457Z,99073.00
2019-01-17T03:00:39.900Z,99071.00
2019-01-17T03:03:09.601Z,99071.00
2019-01-17T03:05:39.047Z,99069.00
2019-01-17T03:08:08.494Z,99073.00
2019-01-17T03:10:37.993Z,99066.00
2019-01-17T03:13:07.447Z,99063.00
2019-01-17T03:15:36.894Z,99057.00
2019-01-17T03:18:06.544Z,99050.00
2019-01-17T03:20:36.157Z,99047.00
2019-01-17T03:23:05.707Z,99049.00
2019-01-17T03:25:35.181Z,99030.00
2019-01-17T03:28:04.767Z,99025.00
2019-01-17T03:30:35.142Z,99027.00
2019-01-17T03:33:04.776Z,99034.00
2019-01-17T03:35:34.223Z,99027.00
2019-01-17T03:38:03.668Z,99030.00
2019-01-17T03:40:33.165Z,99023.00
2019-01-17T03:43:02.609Z,99026.00
2019-01-17T03:45:32.048Z,99031.00
2019-01-17T03:48:01.540Z,99020.00
2019-01-17T03:50:30.985Z,99023.00
2019-01-17T03:53:00.436Z,99028.00
2019-01-17T03:55:29.989Z,99031.00
2019-01-17T03:57:59.428Z,99026.00
2019-01-17T04:00:28.871Z,99023.00
2019-01-17T04:02:58.389Z,99016.00
2019-01-17T04:05:27.850Z,99006.00
2019-01-17T04:07:57.285Z,99007.00
2019-01-17T04:10:26.776Z,99008.00
2019-01-17T04:12:56.213Z,99005.00
2019-01-17T04:15:25.659Z,99004.00
2019-01-17T04:17:55.138Z,99009.00
2019-01-17T04:20:24.592Z,99017.00
2019-01-17T04:22:54.081Z,99012.00
2019-01-17T04:25:23.879Z,99007.00
2019-01-17T04:27:53.301Z,99008.00
2019-01-17T04:30:22.744Z,98999.00
2019-01-17T04:32:52.233Z,99010.00
2019-01-17T04:35:21.662Z,99015.00
2019-01-17T04:37:51.099Z,99017.00
2019-01-17T04:40:20.581Z,99006.00
2019-01-17T04:42:50.096Z,99009.00
2019-01-17T04:45:19.555Z,99015.00
2019-01-17T04:47:49.041Z,99019.00
2019-01-17T04:50:18.482Z,99003.00
2019-01-17T04:52:47.943Z,99012.00
2019-01-17T04:55:17.489Z,99001.00
2019-01-17T04:57:47.004Z,99002.00
2019-01-17T05:00:19.887Z,99000.00
2019-01-17T05:02:49.624Z,99004.00
2019-01-17T05:05:19.222Z,99010.00
2019-01-17T05:07:48.844Z,99008.00
2019-01-17T05:10:19.107Z,98996.00
2019-01-17T05:12:48.735Z,98999.00
2019-01-17T05:15:18.346Z,99000.00
2019-01-17T05:17:47.990Z,98993.00
2019-01-17T05:20:18.256Z,99001.00
2019-01-17T05:22:47.726Z,99008.00
2019-01-17T05:25:17.282Z,99014.00
2019-01-17T05:27:46.968Z,99009.00
2019-01-17T05:30:20.058Z,99006.00
2019-01-17T05:32:49.543Z,99023.00
2019-01-17T05:35:18.977Z,99023.00
2019-01-17T05:37:48.498Z,99029.00
2019-01-17T05:40:19.986Z,99033.00
2019-01-17T05:42:49.600Z,99016.00
2019-01-17T05:45:19.406Z,99032.00
2019-01-17T05:47:48.934Z,99036.00
2019-01-17T05:50:19.107Z,99036.00
2019-01-17T05:52:48.556Z,99022.00
2019-01-17T05:55:20.063Z,99030.00
2019-01-17T05:57:49.196Z,99032.00
2019-01-17T06:00:21.251Z,99034.00
2019-01-17T06:02:50.730Z,99041.00
2019-01-17T06:05:20.740Z,99043.00
2019-01-17T06:07:50.189Z,99041.00
2019-01-17T06:10:19.666Z,99043.00
2019-01-17T06:12:49.285Z,99040.00
2019-01-17T06:15:20.370Z,99051.00
2019-01-17T06:17:49.846Z,99051.00
2019-01-17T06:20:19.899Z,99053.00
2019-01-17T06:22:49.338Z,99050.00
2019-01-17T06:25:18.821Z,99041.00
2019-01-17T06:27:48.453Z,99061.00
2019-01-17T06:30:18.218Z,99054.00
2019-01-17T06:32:47.711Z,99053.00
2019-01-17T06:35:17.228Z,99056.00
2019-01-17T06:37:46.677Z,99075.00
2019-01-17T06:40:21.169Z,99066.00
2019-01-17T06:42:50.612Z,99069.00
2019-01-17T06:45:20.226Z,99066.00
2019-01-17T06:47:49.696Z,99073.00
2019-01-17T06:50:19.202Z,99070.00
2019-01-17T06:52:48.647Z,99076.00
2019-01-17T06:55:18.132Z,99071.00
2019-01-17T06:57:47.647Z,99075.00
2019-01-17T07:00:18.309Z,99079.00
2019-01-17T07:02:47.955Z,99077.00
2019-01-17T07:05:17.465Z,99078.00
2019-01-17T07:07:46.979Z,99079.00
2019-01-17T07:10:18.214Z,99091.00
2019-01-17T07:12:47.659Z,99086.00
2019-01-17T07:15:17.107Z,99097.00
2019-01-17T07:17:46.585Z,99105.00
2019-01-17T07:20:17.268Z,99105.00
2019-01-17T07:22:47.759Z,99104.00
2019-01-17T07:25:17.254Z,99093.00
2019-01-17T07:27:46.718Z,99108.00
2019-01-17T07:30:22.960Z,99104.00
2019-01-17T07:32:52.404Z,99112.00
2019-01-17T07:35:22.022Z,99118.00
2019-01-17T07:37:51.562Z,99115.00
2019-01-17T07:40:21.003Z,99116.00
2019-01-17T07:42:50.519Z,99122.00
2019-01-17T07:45:24.593Z,99122.00
2019-01-17T07:47:54.034Z,99134.00
2019-01-17T07:50:23.492Z,99126.00
2019-01-17T07:52:52.988Z,99134.00
2019-01-17T07:55:22.437Z,99146.00
2019-01-17T07:57:51.880Z,99148.00
2019-01-17T08:00:23.973Z,99158.00
2019-01-17T08:02:53.482Z,99160.00
2019-01-17T08:05:22.927Z,99153.00
2019-01-17T08:07:52.483Z,99156.00
2019-01-17T08:10:21.931Z,99159.00
2019-01-17T08:12:51.514Z,99159.00
2019-01-17T08:15:21.240Z,99157.00
2019-01-17T08:17:50.733Z,99169.00
2019-01-17T08:20:24.416Z,99165.00
2019-01-17T08:22:54.243Z,99162.00
2019-01-17T08:25:23.697Z,99165.00
2019-01-17T08:27:53.203Z,99171.00
2019-01-17T08:30:25.895Z,99174.00
2019-01-17T08:32:55.405Z,99179.00
2019-01-17T08:35:24.915Z,99176.00
2019-01-17T08:37:54.398Z,99175.00
2019-01-17T08:40:27.756Z,99175.00
2019-01-17T08:42:57.219Z,99176.00
2019-01-17T08:45:26.837Z,99183.00
2019-01-17T08:47:56.282Z,99189.00
2019-01-17T08:50:26.273Z,99177.00
2019-01-17T08:52:55.964Z,99184.00
2019-01-17T08:55:25.411Z,99191.00
2019-01-17T08:57:54.854Z,99185.00
2019-01-17T09:00:27.822Z,99186.00
2019-01-17T09:02:57.267Z,99188.00
2019-01-17T09:05:26.703Z,99185.00
2019-01-17T09:07:56.378Z,99194.00
2019-01-17T09:10:30.338Z,99189.00
2019-01-17T09:12:59.779Z,99194.00
2019-01-17T09:15:33.991Z,99189.00
2019-01-17T11:25:46.326Z,99143.00
2019-01-17T11:28:32.148Z,99130.00
2019-01-17T11:31:30.225Z,99133.00
2019-01-17T11:34:22.580Z,99127.00
2019-01-17T11:37:23.609Z,99123.00
2019-01-17T11:40:31.270Z,99118.00
2019-01-17T11:43:19.806Z,99122.00
2019-01-17T11:46:10.251Z,99126.00
2019-01-17T11:49:02.024Z,99122.00
2019-01-17T11:51:58.911Z,99125.00
2019-01-17T11:54:47.990Z,99122.00
2019-01-17T11:57:33.958Z,99113.00
2019-01-17T12:00:27.386Z,99112.00
2019-01-17T12:03:19.219Z,99113.00
2019-01-17T12:05:48.689Z,99113.00
2019-01-17T12:08:18.136Z,99106.00
2019-01-17T12:10:47.576Z,99120.00
2019-01-17T12:13:17.529Z,99113.00
2019-01-17T12:15:47.090Z,99106.00
2019-01-17T12:18:16.529Z,99105.00
2019-01-17T12:20:46.266Z,99102.00
2019-01-17T12:23:15.707Z,99102.00
2019-01-17T12:25:45.145Z,99102.00
2019-01-17T12:28:14.625Z,99093.00
2019-01-17T12:30:44.068Z,99103.00
2019-01-17T12:33:13.507Z,99105.00
2019-01-17T12:35:42.998Z,99100.00
2019-01-17T12:38:12.438Z,99092.00
2019-01-17T12:40:41.883Z,99090.00
2019-01-17T12:43:11.497Z,99091.00
2019-01-17T12:45:40.938Z,99098.00
2019-01-17T12:48:10.447Z,99097.00
2019-01-17T12:50:40.107Z,99102.00
2019-01-17T12:53:09.584Z,99098.00
2019-01-17T12:55:39.024Z,99090.00
2019-01-17T12:58:08.510Z,99089.00
2019-01-17T13:00:37.932Z,99102.00
2019-01-17T13:03:07.392Z,99096.00
2019-01-17T13:05:36.890Z,99107.00
2019-01-17T13:08:06.336Z,99093.00
2019-01-17T13:10:35.770Z,99089.00
2019-01-17T13:13:05.275Z,99090.00
2019-01-17T13:15:34.732Z,99093.00
2019-01-17T13:18:04.341Z,99095.00
2019-01-17T13:20:33.890Z,99091.00
2019-01-17T13:23:03.339Z,99091.00
2019-01-17T13:25:32.874Z,99094.00
2019-01-17T13:28:02.347Z,99093.00
2019-01-17T13:30:31.788Z,99096.00
2019-01-17T13:33:01.302Z,99079.00
2019-01-17T13:35:30.782Z,99076.00
2019-01-17T13:38:00.235Z,99077.00
2019-01-17T13:40:29.681Z,99072.00
2019-01-17T13:42:59.158Z,99077.00
2019-01-17T13:45:28.603Z,99076.00
2019-01-17T13:47:58.053Z,99074.00
2019-01-17T13:50:27.533Z,99074.00
2019-01-17T13:52:56.972Z,99083.00
2019-01-17T13:55:26.437Z,99088.00
2019-01-17T13:57:55.910Z,99082.00
2019-01-17T14:00:26.192Z,99081.00
2019-01-17T14:02:55.901Z,99073.00
2019-01-17T14:05:25.549Z,99071.00
2019-01-17T14:07:55.047Z,99085.00
2019-01-17T14:10:24.489Z,99082.00
2019-01-17T14:12:54.040Z,99089.00
2019-01-17T14:15:29.733Z,99097.00
2019-01-17T14:17:59.210Z,99094.00
2019-01-17T14:20:28.726Z,99093.00
2019-01-17T14:22:58.168Z,99094.00
2019-01-17T14:25:27.652Z,99093.00
2019-01-17T14:27:57.102Z,99094.00
2019-01-17T14:30:33.240Z,99089.00
2019-01-17T14:33:02.722Z,99092.00
2019-01-17T14:35:32.162Z,99091.00
2019-01-17T14:38:01.603Z,99090.00
2019-01-17T14:40:31.099Z,99093.00
2019-01-17T14:43:00.540Z,99085.00
2019-01-17T14:45:30.012Z,99085.00
2019-01-17T14:47:59.464Z,99083.00
2019-01-17T14:50:31.704Z,99094.00
2019-01-17T14:53:01.151Z,99086.00
2019-01-17T14:55:30.633Z,99084.00
2019-01-17T14:58:00.069Z,99082.00
2019-01-17T15:00:32.315Z,99085.00
2019-01-17T15:03:02.824Z,99086.00
2019-01-17T15:05:32.450Z,99092.00
2019-01-17T15:08:01.881Z,99079.00
2019-01-17T15:10:36.130Z,99085.00
2019-01-17T15:13:06.114Z,99089.00
2019-01-17T15:15:35.720Z,99069.00
2019-01-17T15:18:06.398Z,99074.00
2019-01-17T15:20:35.839Z,99082.00
2019-01-17T15:23:05.686Z,99077.00
2019-01-17T15:25:35.216Z,99068.00
2019-01-17T15:28:05.876Z,99069.00
2019-01-17T15:30:35.518Z,99070.00
2019-01-17T15:33:05.434Z,99074.00
2019-01-17T15:35:34.950Z,99078.00
2019-01-17T15:38:04.556Z,99079.00
2019-01-17T15:40:34.186Z,99063.00
2019-01-17T15:43:03.771Z,99071.00
2019-01-17T15:45:33.223Z,99071.00
2019-01-17T15:48:02.803Z,99082.00
2019-01-17T15:50:32.308Z,99078.00
2019-01-17T15:53:02.215Z,99072.00
2019-01-17T15:55:31.664Z,99079.00
2019-01-17T15:58:01.138Z,99083.00
2019-01-17T16:00:32.020Z,99075.00
2019-01-17T16:03:01.564Z,99079.00
2019-01-17T16:05:31.066Z,99075.00
2019-01-17T16:08:00.500Z,99064.00
2019-01-17T16:10:29.938Z,99069.00
2019-01-17T16:13:01.501Z,99073.00
2019-01-17T16:15:30.943Z,99072.00
2019-01-17T16:18:00.397Z,99072.00
2019-01-17T16:20:29.878Z,99070.00
2019-01-17T16:22:59.465Z,99063.00
2019-01-17T16:25:29.169Z,99064.00
2019-01-17T16:27:58.611Z,99068.00
2019-01-17T16:30:30.237Z,99071.00
2019-01-17T16:32:59.673Z,99081.00
2019-01-17T16:35:29.282Z,99079.00
2019-01-17T16:37:58.748Z,99079.00
2019-01-17T16:40:28.383Z,99075.00
2019-01-17T16:42:57.811Z,99080.00
2019-01-17T16:45:27.450Z,99084.00
2019-01-17T16:47:56.935Z,99075.00
2019-01-17T16:50:27.163Z,99082.00
2019-01-17T16:52:56.631Z,99074.00
2019-01-17T16:55:26.085Z,99066.00
2019-01-17T16:57:55.554Z,99064.00
2019-01-17T17:00:35.352Z,99066.00
2019-01-17T17:03:04.899Z,99061.00
2019-01-17T17:05:34.502Z,99066.00
2019-01-17T17:08:04.115Z,99075.00
2019-01-17T17:10:33.742Z,99068.00
2019-01-17T17:13:03.329Z,99076.00
2019-01-17T17:15:32.840Z,99072.00
2019-01-17T17:18:02.320Z,99071.00
2019-01-17T17:20:31.839Z,99071.00
2019-01-17T17:23:01.278Z,99076.00
2019-01-17T17:25:30.764Z,99074.00
2019-01-17T17:28:00.214Z,99072.00
2019-01-17T17:30:30.323Z,99072.00
2019-01-17T17:32:59.802Z,99076.00
2019-01-17T17:35:29.249Z,99077.00
2019-01-17T17:37:58.773Z,99071.00
2019-01-17T17:40:29.786Z,99077.00
2019-01-17T17:42:59.225Z,99077.00
2019-01-17T17:45:28.803Z,99082.00
2019-01-17T17:47:58.292Z,99086.00
2019-01-17T17:50:27.730Z,99076.00
2019-01-17T17:52:57.172Z,99076.00
2019-01-17T17:55:26.673Z,99066.00
2019-01-17T17:58:01.970Z,99074.00
2019-01-17T18:00:41.293Z,99068.00
2019-01-17T18:03:10.905Z,99072.00
2019-01-17T18:05:40.616Z,99075.00
2019-01-17T18:08:10.140Z,99067.00
2019-01-17T18:10:39.597Z,99066.00
2019-01-17T18:13:09.043Z,99075.00
2019-01-17T18:15:38.535Z,99073.00
2019-01-17T18:18:08.148Z,99068.00
2019-01-17T18:20:37.684Z,99066.00
2019-01-17T18:23:07.129Z,99061.00
2019-01-17T18:25:36.569Z,99057.00
2019-01-17T18:28:08.830Z,99067.00
2019-01-17T18:30:37.551Z,99062.00
2019-01-17T18:33:07.014Z,99064.00
2019-01-17T18:35:36.490Z,99063.00
2019-01-17T18:38:06.241Z,99069.00
2019-01-17T18:40:35.752Z,99063.00
2019-01-17T18:43:06.067Z,99065.00
2019-01-17T18:45:35.505Z,99053.00
2019-01-17T18:48:05.349Z,99040.00
2019-01-17T18:50:36.342Z,99033.00
2019-01-17T18:53:06.056Z,99037.00
2019-01-17T18:55:35.560Z,99039.00
2019-01-17T18:58:05.218Z,99051.00
2019-01-17T19:00:34.660Z,99050.00
2019-01-17T19:03:04.277Z,99061.00
2019-01-17T19:05:34.106Z,99053.00
2019-01-17T19:08:03.745Z,99069.00
2019-01-17T19:10:33.363Z,99073.00
2019-01-17T19:13:02.842Z,99068.00
2019-01-17T19:15:34.879Z,99077.00
2019-01-17T19:18:04.559Z,99083.00
2019-01-17T19:20:34.116Z,99085.00
2019-01-17T19:23:03.565Z,99074.00
2019-01-17T19:25:33.011Z,99083.00
2019-01-17T19:28:02.482Z,99085.00
2019-01-17T19:30:32.104Z,99080.00
2019-01-17T19:33:01.644Z,99093.00
2019-01-17T19:35:31.097Z,99076.00
2019-01-17T19:38:00.558Z,99078.00
2019-01-17T19:40:31.007Z,99079.00
2019-01-17T19:43:00.454Z,99084.00
2019-01-17T19:45:29.938Z,99078.00
2019-01-17T19:47:59.696Z,99083.00
2019-01-17T19:50:35.526Z,99083.00
2019-01-17T19:53:05.539Z,99096.00
2019-01-17T19:55:35.221Z,99085.00
2019-01-17T19:58:04.900Z,99097.00
2019-01-17T20:00:34.568Z,99101.00
2019-01-17T20:03:04.655Z,99104.00
2019-01-17T20:05:34.644Z,99107.00
2019-01-17T20:08:04.234Z,99098.00
2019-01-17T20:10:35.282Z,99098.00
2019-01-17T20:13:06.392Z,99102.00
2019-01-17T20:15:35.896Z,99096.00
2019-01-17T20:18:06.620Z,99099.00
2019-01-17T20:20:36.187Z,99102.00
2019-01-17T20:23:05.705Z,99093.00
2019-01-17T20:25:35.342Z,99094.00
2019-01-17T20:28:05.267Z,99097.00
2019-01-17T20:30:35.423Z,99094.00
2019-01-17T20:33:05.277Z,99097.00
2019-01-17T20:35:34.773Z,99094.00
2019-01-17T20:38:04.749Z,99090.00
2019-01-17T20:40:34.262Z,99086.00
2019-01-17T20:43:03.910Z,99087.00
2019-01-17T20:45:33.424Z,99081.00
2019-01-17T20:48:02.884Z,99076.00
2019-01-17T20:50:33.286Z,99086.00
2019-01-17T20:53:02.808Z,99099.00
2019-01-17T20:55:32.246Z,99090.00
2019-01-17T20:58:03.287Z,99099.00
2019-01-17T21:00:43.317Z,99087.00
2019-01-17T21:03:15.347Z,99091.00
2019-01-17T21:05:44.784Z,99106.00
2019-01-17T21:08:14.276Z,99112.00
2019-01-17T21:10:43.725Z,99121.00
2019-01-17T21:13:13.166Z,99123.00
2019-01-17T21:15:42.648Z,99112.00
2019-01-17T21:18:12.103Z,99120.00
2019-01-17T21:20:41.580Z,99117.00
2019-01-17T21:23:11.085Z,99119.00
2019-01-17T21:25:40.559Z,99124.00
2019-01-17T21:28:10.047Z,99129.00
2019-01-17T21:30:39.489Z,99132.00
2019-01-17T21:33:09.575Z,99126.00
2019-01-17T21:35:39.066Z,99139.00
2019-01-17T21:38:08.518Z,99133.00
2019-01-17T21:40:37.954Z,99138.00
2019-01-17T21:43:07.446Z,99138.00
2019-01-17T21:45:36.892Z,99141.00
2019-01-17T21:48:06.349Z,99146.00
2019-01-17T21:50:35.853Z,99146.00
2019-01-17T21:53:05.579Z,99153.00
2019-01-17T21:55:35.020Z,99154.00
2019-01-17T21:58:06.260Z,99167.00
2019-01-17T22:00:35.771Z,99175.00
2019-01-17T22:03:05.215Z,99178.00
2019-01-17T22:05:34.700Z,99178.00
2019-01-17T22:08:04.313Z,99180.00
2019-01-17T22:10:33.746Z,99183.00
2019-01-17T22:13:03.229Z,99174.00
2019-01-17T22:15:32.669Z,99177.00
2019-01-17T22:18:02.115Z,99177.00
2019-01-17T22:20:31.612Z,99173.00
2019-01-17T22:23:01.030Z,99174.00
2019-01-17T22:25:30.480Z,99170.00
2019-01-17T22:27:59.929Z,99185.00
2019-01-17T22:30:31.352Z,99186.00
2019-01-17T22:33:00.861Z,99195.00
2019-01-17T22:35:30.310Z,99191.00
2019-01-17T22:37:59.757Z,99213.00
2019-01-17T22:40:29.233Z,99228.00
2019-01-17T22:42:58.748Z,99238.00
2019-01-17T22:45:31.881Z,99238.00
2019-01-17T22:48:01.320Z,99254.00
2019-01-17T22:50:30.797Z,99229.00
2019-01-17T22:53:00.235Z,99243.00
2019-01-17T22:55:29.669Z,99241.00
2019-01-17T22:57:59.147Z,99251.00
2019-01-17T23:00:55.353Z,99251.00
2019-01-17T23:03:31.955Z,99267.00
2019-01-17T23:06:01.400Z,99271.00
2019-01-17T23:08:30.882Z,99274.00
2019-01-17T23:11:00.323Z,99279.00
2019-01-17T23:13:29.799Z,99296.00
2019-01-17T23:15:59.243Z,99293.00
2019-01-17T23:18:28.711Z,99309.00
2019-01-17T23:20:58.155Z,99322.00
2019-01-17T23:23:27.712Z,99317.00
2019-01-17T23:25:57.174Z,99319.00
2019-01-17T23:28:26.609Z,99317.00
2019-01-17T23:30:56.083Z,99325.00
2019-01-17T23:33:25.516Z,99337.00
2019-01-17T23:35:54.998Z,99338.00
2019-01-17T23:38:24.439Z,99337.00
2019-01-17T23:40:53.980Z,99352.00
2019-01-17T23:43:23.418Z,99345.00
2019-01-17T23:45:52.872Z,99351.00
2019-01-17T23:48:22.315Z,99345.00
2019-01-17T23:50:52.195Z,99365.00
2019-01-17T23:53:21.635Z,99362.00
2019-01-17T23:55:51.074Z,99361.00
2019-01-17T23:58:20.551Z,99366.00
